Time;durP1;ratioP1;P1;durP2;ratioP2;P2;SDS_P1;SDS_P2;PMS_P1;PMS_P2;Temp;Humidity;BMP_temperature;BMP_pressure;BME280_temperature;BME280_humidity;BME280_pressure;Samples;Min_cycle;Max_cycle;Signal;HPM_P1;HPM_P2
2022/03/27 00:00:05;;;;;;;8.87;5.70;;;;;4.10;97900.00;;;;5055154;28;20945;-87
2022/03/27 00:02:54;;;;;;;6.73;5.30;;;;;3.80;97903.00;;;;5054607;28;20438;-87
2022/03/27 00:05:43;;;;;;;9.13;6.57;;;;;3.60;97891.00;;;;5045639;28;20432;-87
2022/03/27 00:08:33;;;;;;;8.57;5.87;;;;;3.40;97897.00;;;;5052598;28;20521;-88
2022/03/27 00:11:27;;;;;;;10.30;6.70;;;;;3.30;97894.00;;;;5055071;28;20436;-88
2022/03/27 00:14:16;;;;;;;6.93;6.20;;;;;3.10;97880.00;;;;5054094;28;20474;-87
2022/03/27 00:17:05;;;;;;;10.23;6.10;;;;;3.30;97890.00;;;;5053718;28;20435;-87
2022/03/27 00:19:55;;;;;;;10.63;6.47;;;;;3.30;97896.00;;;;5053468;28;20531;-87
2022/03/27 00:22:44;;;;;;;9.33;6.23;;;;;3.30;97890.00;;;;5054971;28;20443;-87
2022/03/27 00:25:34;;;;;;;7.57;5.43;;;;;2.90;97887.00;;;;5054708;28;20439;-87
2022/03/27 00:28:25;;;;;;;9.57;6.73;;;;;3.10;97897.00;;;;5044305;28;20458;-87
2022/03/27 00:31:14;;;;;;;9.73;6.40;;;;;2.50;97888.00;;;;5045840;28;20979;-88
2022/03/27 00:34:04;;;;;;;6.27;5.63;;;;;2.50;97887.00;;;;5047039;28;20473;-87
2022/03/27 00:36:53;;;;;;;8.67;6.03;;;;;2.80;97895.00;;;;5063846;28;20447;-88
2022/03/27 00:39:42;;;;;;;9.57;6.27;;;;;3.10;97892.00;;;;5053967;28;21156;-87
2022/03/27 00:42:32;;;;;;;6.80;5.67;;;;;3.20;97895.00;;;;5053918;28;20446;-87
2022/03/27 00:45:21;;;;;;;9.07;6.57;;;;;3.20;97889.00;;;;5053392;28;20436;-87
2022/03/27 00:48:11;;;;;;;7.83;5.83;;;;;2.90;97906.00;;;;5047143;28;20436;-88
2022/03/27 00:51:00;;;;;;;7.77;5.70;;;;;2.70;97896.00;;;;5045325;28;20474;-88
2022/03/27 00:53:50;;;;;;;7.03;6.17;;;;;2.90;97891.00;;;;5054866;28;21015;-87
2022/03/27 00:56:39;;;;;;;7.13;5.90;;;;;2.80;97895.00;;;;5044650;28;20975;-88
2022/03/27 00:59:29;;;;;;;12.50;6.80;;;;;3.10;97895.00;;;;5054831;28;20444;-88
2022/03/27 01:02:19;;;;;;;10.13;6.27;;;;;3.10;97891.00;;;;5054593;28;20870;-87
2022/03/27 01:05:13;;;;;;;6.63;5.93;;;;;3.10;97896.00;;;;5055481;28;20469;-87
2022/03/27 01:08:06;;;;;;;12.90;7.03;;;;;2.80;97896.00;;;;5052557;28;20435;-88
2022/03/27 01:10:54;;;;;;;7.07;6.07;;;;;1.80;97889.00;;;;5060248;28;20486;-88
2022/03/27 01:13:47;;;;;;;8.20;6.63;;;;;2.00;97889.00;;;;5052259;28;20472;-88
2022/03/27 01:16:41;;;;;;;10.07;6.37;;;;;2.30;97883.00;;;;5045298;28;20451;-88
2022/03/27 01:19:31;;;;;;;7.97;6.87;;;;;2.20;97889.00;;;;5046146;28;20440;-88
2022/03/27 01:22:23;;;;;;;8.97;6.47;;;;;2.30;97888.00;;;;5041962;28;20439;-88
2022/03/27 01:25:12;;;;;;;7.60;5.83;;;;;1.70;97882.00;;;;5051523;28;20850;-88
2022/03/27 01:28:01;;;;;;;6.40;4.53;;;;;0.80;97874.00;;;;5059420;28;20435;-88
2022/03/27 01:30:50;;;;;;;7.57;5.83;;;;;1.10;97878.00;;;;5050107;28;20443;-87
2022/03/27 01:33:39;;;;;;;8.67;6.13;;;;;1.40;97867.00;;;;5052094;28;20859;-88
2022/03/27 01:36:34;;;;;;;8.50;5.53;;;;;1.50;97868.00;;;;5055026;28;20457;-88
2022/03/27 01:39:24;;;;;;;7.77;6.23;;;;;1.70;97866.00;;;;5056789;28;20961;-87
2022/03/27 01:42:14;;;;;;;8.13;6.13;;;;;1.80;97867.00;;;;5056187;28;20439;-88
2022/03/27 01:45:03;;;;;;;9.67;6.63;;;;;1.90;97866.00;;;;5047764;28;20463;-88
2022/03/27 01:47:52;;;;;;;9.70;6.80;;;;;2.00;97868.00;;;;5053647;28;20965;-88
2022/03/27 01:50:41;;;;;;;8.40;6.70;;;;;2.00;97869.00;;;;5061872;28;20446;-87
2022/03/27 01:53:31;;;;;;;8.87;6.87;;;;;1.90;97868.00;;;;5054359;28;20454;-88
2022/03/27 01:56:21;;;;;;;8.43;6.93;;;;;2.10;97864.00;;;;5061256;28;20444;-88
2022/03/27 01:59:11;;;;;;;9.80;7.57;;;;;2.00;97872.00;;;;5054848;28;21285;-88
2022/03/27 02:02:00;;;;;;;8.97;6.50;;;;;2.10;97875.00;;;;5056457;28;20814;-88
2022/03/27 02:04:49;;;;;;;9.83;6.83;;;;;2.00;97872.00;;;;5048470;28;20463;-88
2022/03/27 02:07:38;;;;;;;9.93;6.47;;;;;1.80;97873.00;;;;5046679;28;20439;-88
2022/03/27 02:10:28;;;;;;;14.30;7.13;;;;;2.00;97878.00;;;;5045510;28;20431;-87
2022/03/27 02:13:19;;;;;;;7.87;7.03;;;;;1.10;97877.00;;;;5053641;28;20447;-88
2022/03/27 02:16:08;;;;;;;10.90;7.80;;;;;1.20;97876.00;;;;5055590;28;20467;-87
2022/03/27 02:18:58;;;;;;;11.40;7.17;;;;;1.90;97884.00;;;;5055231;28;20532;-88
2022/03/27 02:21:47;;;;;;;13.97;9.13;;;;;2.00;97894.00;;;;5056737;28;20474;-88
2022/03/27 02:24:36;;;;;;;12.40;7.53;;;;;1.80;97899.00;;;;5055785;28;20469;-88
2022/03/27 02:27:25;;;;;;;11.10;7.30;;;;;1.90;97893.00;;;;5055879;28;20447;-88
2022/03/27 02:30:18;;;;;;;10.47;7.57;;;;;1.80;97895.00;;;;5046786;28;20443;-87
2022/03/27 02:33:07;;;;;;;8.70;6.50;;;;;1.20;97885.00;;;;5056969;28;20463;-88
2022/03/27 02:35:56;;;;;;;8.20;6.47;;;;;1.40;97897.00;;;;5043954;28;20477;-88
2022/03/27 02:38:45;;;;;;;9.97;7.03;;;;;1.60;97901.00;;;;5056467;28;20462;-88
2022/03/27 02:41:34;;;;;;;11.30;7.67;;;;;1.40;97904.00;;;;5054750;28;20481;-88
2022/03/27 02:44:24;;;;;;;11.97;8.33;;;;;1.90;97910.00;;;;5053753;28;20754;-88
2022/03/27 02:47:14;;;;;;;12.17;8.43;;;;;1.90;97903.00;;;;5053844;28;20445;-88
2022/03/27 02:50:05;;;;;;;10.60;7.87;;;;;1.40;97894.00;;;;5056047;28;20451;-87
2022/03/27 02:52:54;;;;;;;7.60;5.13;;;;;0.90;97892.00;;;;5058350;28;20446;-88
2022/03/27 02:55:44;;;;;;;7.67;6.10;;;;;1.00;97901.00;;;;5048458;28;20456;-88
2022/03/27 02:58:33;;;;;;;12.23;8.00;;;;;1.40;97896.00;;;;5043250;28;20431;-87
2022/03/27 03:01:22;;;;;;;12.80;9.10;;;;;1.80;97904.00;;;;5065928;28;20809;-88
2022/03/27 03:04:14;;;;;;;14.57;9.30;;;;;1.90;97902.00;;;;5056505;28;20459;-87
2022/03/27 03:07:03;;;;;;;12.50;7.97;;;;;1.00;97895.00;;;;5054533;28;20790;-88
2022/03/27 03:09:53;;;;;;;11.03;8.40;;;;;0.90;97888.00;;;;5054447;28;20446;-87
2022/03/27 03:12:43;;;;;;;8.93;8.03;;;;;1.10;97893.00;;;;5054005;28;20439;-87
2022/03/27 03:15:32;;;;;;;12.87;9.03;;;;;1.40;97900.00;;;;5054502;28;20467;-87
2022/03/27 03:18:21;;;;;;;9.10;7.80;;;;;1.40;97896.00;;;;5046142;28;20439;-87
2022/03/27 03:21:12;;;;;;;20.47;9.70;;;;;1.00;97895.00;;;;5043610;28;20454;-88
2022/03/27 03:24:01;;;;;;;12.20;8.03;;;;;0.90;97900.00;;;;5064107;28;21023;-88
2022/03/27 03:26:50;;;;;;;13.57;8.53;;;;;1.20;97897.00;;;;5063368;28;20435;-88
2022/03/27 03:29:39;;;;;;;10.23;8.53;;;;;1.20;97907.00;;;;5054106;28;20443;-88
2022/03/27 03:32:28;;;;;;;12.30;7.90;;;;;1.00;97892.00;;;;5061305;28;21253;-86
2022/03/27 03:35:18;;;;;;;9.13;5.90;;;;;0.90;97892.00;;;;5053447;28;20466;-87
2022/03/27 03:38:20;;;;;;;10.57;7.83;;;;;1.00;97910.00;;;;5053810;28;20976;-87
2022/03/27 03:41:09;;;;;;;15.23;7.97;;;;;1.10;97900.00;;;;5055477;28;20436;-87
2022/03/27 03:43:58;;;;;;;18.60;11.33;;;;;1.30;97899.00;;;;5046913;28;20458;-88
2022/03/27 03:46:48;;;;;;;12.33;10.03;;;;;1.40;97894.00;;;;5052732;28;20461;-88
2022/03/27 03:49:37;;;;;;;16.33;8.73;;;;;1.20;97902.00;;;;5043713;28;20435;-88
2022/03/27 03:52:26;;;;;;;11.73;10.30;;;;;0.80;97891.00;;;;5064947;28;20440;-87
2022/03/27 03:55:17;;;;;;;11.90;8.60;;;;;0.90;97883.00;;;;5060735;28;20466;-88
2022/03/27 03:58:06;;;;;;;13.03;9.67;;;;;1.00;97889.00;;;;5053704;28;20430;-88
2022/03/27 04:00:55;;;;;;;14.47;9.70;;;;;0.70;97876.00;;;;5053022;28;20452;-87
2022/03/27 04:03:44;;;;;;;10.30;8.83;;;;;1.10;97883.00;;;;5063367;28;20543;-88
2022/03/27 04:06:34;;;;;;;16.40;9.53;;;;;1.30;97886.00;;;;5044259;28;20428;-89
2022/03/27 04:09:23;;;;;;;17.07;9.63;;;;;1.10;97886.00;;;;5052247;28;20435;-87
2022/03/27 04:12:14;;;;;;;10.93;7.17;;;;;0.50;97887.00;;;;5061969;28;20451;-86
2022/03/27 04:15:03;;;;;;;15.53;9.97;;;;;0.40;97893.00;;;;5041139;28;20470;-87
2022/03/27 04:17:52;;;;;;;13.37;10.07;;;;;0.70;97895.00;;;;5051041;28;20428;-89
2022/03/27 04:20:43;;;;;;;14.07;10.63;;;;;1.10;97907.00;;;;5046746;28;20447;-88
2022/03/27 04:23:32;;;;;;;14.37;9.53;;;;;1.30;97901.00;;;;5052825;28;20458;-87
2022/03/27 04:26:21;;;;;;;17.30;11.33;;;;;1.30;97901.00;;;;5050953;28;20423;-88
2022/03/27 04:29:12;;;;;;;13.93;9.90;;;;;1.30;97899.00;;;;5051864;28;20447;-88
2022/03/27 04:32:01;;;;;;;13.60;9.67;;;;;1.40;97911.00;;;;5061161;28;20964;-88
2022/03/27 04:34:50;;;;;;;13.63;9.90;;;;;1.70;97919.00;;;;5051927;28;20460;-88
2022/03/27 04:37:40;;;;;;;14.80;9.33;;;;;1.60;97919.00;;;;5050003;28;20937;-88
2022/03/27 04:40:29;;;;;;;5.47;4.80;;;;;0.20;97920.00;;;;5052031;28;20942;-88
2022/03/27 04:43:18;;;;;;;11.40;8.37;;;;;0.00;97911.00;;;;5060647;28;20452;-87
2022/03/27 04:46:09;;;;;;;18.37;10.10;;;;;0.20;97918.00;;;;5044299;28;20447;-88
2022/03/27 04:48:58;;;;;;;15.93;9.37;;;;;0.40;97932.00;;;;5039745;28;20442;-88
2022/03/27 04:51:47;;;;;;;11.40;8.80;;;;;0.70;97926.00;;;;5055611;28;20438;-88
2022/03/27 04:54:36;;;;;;;14.23;9.00;;;;;0.90;97928.00;;;;5046481;28;20933;-88
2022/03/27 04:57:25;;;;;;;12.47;8.87;;;;;1.10;97942.00;;;;5049706;28;20463;-88
2022/03/27 05:00:15;;;;;;;12.70;9.47;;;;;1.40;97938.00;;;;5049534;28;20427;-88
2022/03/27 05:03:06;;;;;;;15.80;10.07;;;;;0.80;97931.00;;;;5064587;28;20459;-87
2022/03/27 05:05:55;;;;;;;16.40;9.93;;;;;0.50;97931.00;;;;5051448;28;20438;-88
2022/03/27 05:08:45;;;;;;;12.77;9.13;;;;;0.70;97928.00;;;;5054602;28;20445;-87
2022/03/27 05:11:34;;;;;;;18.90;10.53;;;;;0.90;97936.00;;;;5059581;28;20457;-87
2022/03/27 05:14:23;;;;;;;13.23;10.43;;;;;1.40;97953.00;;;;5063378;28;20458;-87
2022/03/27 05:17:12;;;;;;;14.03;10.13;;;;;1.20;97941.00;;;;5055637;28;20470;-87
2022/03/27 05:20:05;;;;;;;16.10;9.87;;;;;0.80;97929.00;;;;5043502;28;20449;-87
2022/03/27 05:22:55;;;;;;;14.23;9.23;;;;;0.70;97937.00;;;;5068792;28;20441;-87
2022/03/27 05:25:45;;;;;;;15.47;8.20;;;;;0.70;97948.00;;;;5056323;28;20423;-88
2022/03/27 05:28:34;;;;;;;11.93;8.67;;;;;0.20;97955.00;;;;5055817;28;20451;-88
2022/03/27 05:31:24;;;;;;;15.83;9.63;;;;;0.00;97965.00;;;;5056720;28;20819;-87
2022/03/27 05:34:13;;;;;;;13.43;7.77;;;;;0.70;97953.00;;;;5064297;28;20752;-87
2022/03/27 05:37:04;;;;;;;15.03;10.13;;;;;0.70;97958.00;;;;5054595;28;20467;-88
2022/03/27 05:39:53;;;;;;;18.17;11.30;;;;;1.50;97966.00;;;;5054691;28;20423;-88
2022/03/27 05:42:42;;;;;;;12.67;8.60;;;;;1.50;97972.00;;;;5056708;28;20966;-87
2022/03/27 05:45:31;;;;;;;9.83;8.03;;;;;1.00;97968.00;;;;5054690;28;20975;-88
2022/03/27 05:48:20;;;;;;;14.97;9.23;;;;;1.00;97972.00;;;;5052527;28;20431;-87
2022/03/27 05:51:10;;;;;;;12.20;10.27;;;;;1.50;97960.00;;;;5055257;28;20462;-87
2022/03/27 05:54:00;;;;;;;18.27;8.27;;;;;1.00;97960.00;;;;5050871;28;20435;-87
2022/03/27 05:56:49;;;;;;;11.33;8.37;;;;;0.70;97973.00;;;;5051600;28;20471;-87
2022/03/27 05:59:38;;;;;;;13.83;9.40;;;;;0.90;97966.00;;;;5054358;28;20497;-87
2022/03/27 06:02:27;;;;;;;15.47;8.00;;;;;1.10;97970.00;;;;5060472;28;20442;-88
2022/03/27 06:05:22;;;;;;;10.30;8.30;;;;;1.50;97974.00;;;;5053533;28;20424;-86
2022/03/27 06:08:11;;;;;;;7.13;5.63;;;;;1.70;97982.00;;;;5053022;28;20443;-88
2022/03/27 06:11:02;;;;;;;11.20;8.83;;;;;2.20;97973.00;;;;5051832;28;20432;-88
2022/03/27 06:13:51;;;;;;;13.67;7.83;;;;;2.60;97989.00;;;;5040738;28;20451;-89
2022/03/27 06:16:40;;;;;;;9.77;4.90;;;;;2.70;97999.00;;;;5044944;28;20467;-89
2022/03/27 06:19:30;;;;;;;17.73;11.57;;;;;2.90;97991.00;;;;5044534;28;20479;-88
2022/03/27 06:22:19;;;;;;;12.93;9.87;;;;;3.10;97994.00;;;;5040642;28;20801;-88
2022/03/27 06:25:10;;;;;;;36.47;18.70;;;;;3.00;97993.00;;;;5036374;28;20447;-86
2022/03/27 06:28:00;;;;;;;26.53;16.00;;;;;3.00;98002.00;;;;5038110;28;20481;-88
2022/03/27 06:30:50;;;;;;;13.63;10.10;;;;;2.80;98004.00;;;;5040360;28;20446;-88
2022/03/27 06:33:39;;;;;;;14.83;11.20;;;;;3.20;97996.00;;;;5037889;28;20800;-88
2022/03/27 06:36:29;;;;;;;15.87;9.53;;;;;3.50;98002.00;;;;5040011;28;20475;-88
2022/03/27 06:39:18;;;;;;;17.87;9.93;;;;;3.70;97998.00;;;;5046126;28;20813;-88
2022/03/27 06:42:08;;;;;;;14.53;10.17;;;;;4.20;98012.00;;;;5044330;28;20454;-88
2022/03/27 06:44:58;;;;;;;15.53;9.80;;;;;4.20;98013.00;;;;5043138;28;20886;-87
2022/03/27 06:47:48;;;;;;;15.50;9.20;;;;;4.30;97998.00;;;;5042789;28;20458;-88
2022/03/27 06:50:37;;;;;;;13.37;9.93;;;;;4.60;98004.00;;;;5041957;28;20435;-89
2022/03/27 06:53:27;;;;;;;10.83;8.90;;;;;5.10;98007.00;;;;5048125;28;20455;-89
2022/03/27 06:56:16;;;;;;;19.93;10.00;;;;;5.40;98012.00;;;;5046316;28;20444;-88
2022/03/27 06:59:05;;;;;;;19.33;9.70;;;;;5.60;98009.00;;;;5052983;28;20798;-89
2022/03/27 07:05:03;;;;;;;12.27;9.30;;;;;6.00;98009.00;;;;5045831;28;20467;-89
2022/03/27 07:07:52;;;;;;;15.53;9.40;;;;;6.30;98003.00;;;;5049086;28;20439;-88
2022/03/27 07:10:42;;;;;;;14.43;10.40;;;;;6.80;98004.00;;;;5043088;28;20447;-88
2022/03/27 07:13:32;;;;;;;14.30;9.00;;;;;7.40;97999.00;;;;5045873;28;20236;-89
2022/03/27 07:16:21;;;;;;;12.43;9.87;;;;;7.80;98004.00;;;;5044948;28;21479;-89
2022/03/27 07:19:14;;;;;;;14.47;9.43;;;;;8.20;98016.00;;;;5048904;28;20262;-89
2022/03/27 07:22:04;;;;;;;13.07;9.57;;;;;8.30;98001.00;;;;5038315;28;20220;-89
2022/03/27 07:24:53;;;;;;;13.53;9.50;;;;;8.60;98018.00;;;;5043082;28;20255;-89
2022/03/27 07:27:42;;;;;;;15.43;9.47;;;;;8.90;98007.00;;;;5046563;28;20212;-90
2022/03/27 07:30:32;;;;;;;12.13;9.50;;;;;9.00;98012.00;;;;5044256;28;20212;-87
2022/03/27 07:33:21;;;;;;;13.57;9.60;;;;;9.30;98012.00;;;;5054970;28;20965;-86
2022/03/27 07:36:11;;;;;;;12.97;8.93;;;;;9.50;98014.00;;;;5052754;28;20251;-85
2022/03/27 07:39:00;;;;;;;17.37;9.87;;;;;9.50;98015.00;;;;5050355;28;20221;-86
2022/03/27 07:41:50;;;;;;;11.00;8.77;;;;;9.80;98010.00;;;;5046161;28;20201;-89
2022/03/27 07:44:39;;;;;;;13.43;9.10;;;;;10.00;98016.00;;;;5048667;28;20220;-87
2022/03/27 07:47:28;;;;;;;10.90;8.13;;;;;10.20;98016.00;;;;5043871;28;20705;-89
2022/03/27 07:50:18;;;;;;;11.37;9.07;;;;;10.40;98023.00;;;;5045769;28;20205;-88
2022/03/27 07:53:08;;;;;;;13.73;9.53;;;;;10.50;98011.00;;;;5048015;28;20236;-88
2022/03/27 07:55:57;;;;;;;13.63;8.80;;;;;10.60;98030.00;;;;5047170;28;20224;-88
2022/03/27 07:58:47;;;;;;;17.30;9.63;;;;;10.90;98005.00;;;;5044667;28;20598;-89
2022/03/27 08:01:36;;;;;;;14.00;9.80;;;;;11.10;98009.00;;;;5043530;28;20204;-88
2022/03/27 08:04:25;;;;;;;11.03;8.00;;;;;11.40;98006.00;;;;5044257;28;20236;-88
2022/03/27 08:07:14;;;;;;;11.57;9.20;;;;;11.60;98003.00;;;;5047054;28;20213;-85
2022/03/27 08:10:07;;;;;;;13.80;9.40;;;;;11.90;97999.00;;;;5046113;28;20209;-89
2022/03/27 08:12:56;;;;;;;18.67;9.83;;;;;11.90;97998.00;;;;5036177;28;20205;-88
2022/03/27 08:15:45;;;;;;;9.70;7.97;;;;;12.20;97996.00;;;;5035976;28;20569;-88
2022/03/27 08:18:35;;;;;;;13.03;9.27;;;;;12.50;98006.00;;;;5040779;28;20228;-87
2022/03/27 08:21:24;;;;;;;11.03;7.93;;;;;12.60;97996.00;;;;5060317;28;20213;-87
2022/03/27 08:24:13;;;;;;;15.47;10.10;;;;;12.70;97999.00;;;;5060873;28;20232;-88
2022/03/27 08:27:04;;;;;;;11.27;8.77;;;;;13.00;97999.00;;;;5049216;28;20205;-87
2022/03/27 08:29:53;;;;;;;12.60;8.17;;;;;13.10;97993.00;;;;5047980;28;20208;-87
2022/03/27 08:32:42;;;;;;;13.20;7.97;;;;;13.30;97996.00;;;;5047577;28;20668;-87
2022/03/27 08:35:31;;;;;;;15.03;9.10;;;;;13.50;97994.00;;;;5044185;28;20219;-88
2022/03/27 08:38:20;;;;;;;11.07;8.90;;;;;13.80;97994.00;;;;5044179;28;20225;-89
2022/03/27 08:41:12;;;;;;;13.13;8.90;;;;;14.00;97988.00;;;;5044706;28;20204;-88
2022/03/27 08:44:03;;;;;;;13.80;9.53;;;;;14.30;97984.00;;;;5045625;28;20228;-87
2022/03/27 08:46:54;;;;;;;15.23;9.77;;;;;14.70;97995.00;;;;5043518;28;20239;-88
2022/03/27 08:49:47;;;;;;;12.00;8.27;;;;;14.90;97990.00;;;;5045061;28;20707;-88
2022/03/27 08:52:55;;;;;;;11.57;8.33;;;;;15.10;97989.00;;;;5044771;28;20204;-88
2022/03/27 08:55:48;;;;;;;12.90;8.30;;;;;15.40;97995.00;;;;5046586;28;20710;-89
2022/03/27 08:58:39;;;;;;;13.43;8.50;;;;;15.70;97997.00;;;;5042112;28;20227;-88
2022/03/27 09:01:30;;;;;;;16.03;9.57;;;;;15.90;97999.00;;;;5043658;28;20213;-88
2022/03/27 09:04:19;;;;;;;14.53;10.20;;;;;16.10;98001.00;;;;5045624;28;20227;-88
2022/03/27 09:07:08;;;;;;;13.57;9.93;;;;;16.30;97997.00;;;;5041504;28;20266;-89
2022/03/27 09:09:59;;;;;;;17.17;10.50;;;;;16.50;97992.00;;;;5042894;28;20564;-88
2022/03/27 09:12:51;;;;;;;19.93;10.97;;;;;16.60;97998.00;;;;5047418;28;20738;-88
2022/03/27 09:15:40;;;;;;;18.33;10.10;;;;;16.70;97990.00;;;;5047195;28;20193;-89
2022/03/27 09:18:45;;;;;;;15.83;8.97;;;15.70;54.80;16.60;97989.00;;;;5046542;28;20220;-89
2022/03/27 09:21:51;;;;;;;17.90;11.60;;;15.60;54.70;16.90;97980.00;;;;5042512;28;20192;-89
2022/03/27 09:24:41;;;;;;;13.80;9.77;;;15.70;55.60;17.20;97985.00;;;;5042045;28;20232;-88
2022/03/27 09:27:33;;;;;;;16.70;11.33;;;15.80;55.50;17.50;97987.00;;;;5043417;28;20209;-88
2022/03/27 09:30:22;;;;;;;17.67;12.13;;;16.00;55.40;17.30;97988.00;;;;5045168;28;20205;-88
2022/03/27 09:33:10;;;;;;;18.17;10.47;;;16.10;52.70;17.00;97986.00;;;;5040678;28;20235;-87
2022/03/27 09:36:10;;;;;;;18.77;10.73;;;16.20;52.80;17.60;97984.00;;;;5041734;28;20202;-87
2022/03/27 09:39:07;;;;;;;15.13;11.50;;;16.40;53.10;16.60;97977.00;;;;5045038;28;20745;-87
2022/03/27 09:42:00;;;;;;;21.50;13.40;;;16.40;51.60;16.30;97973.00;;;;5041978;28;20209;-86
2022/03/27 09:44:50;;;;;;;21.47;13.27;;;16.20;49.80;16.70;97969.00;;;;5039534;28;20624;-87
2022/03/27 09:47:39;;;;;;;16.93;11.07;;;16.10;50.40;16.90;97966.00;;;;5033174;28;20224;-87
2022/03/27 09:50:34;;;;;;;19.00;12.57;;;16.30;49.80;17.60;97971.00;;;;5046884;28;20730;-86
2022/03/27 09:53:28;;;;;;;20.93;14.83;;;16.40;50.50;18.20;97970.00;;;;5039207;28;20716;-87
2022/03/27 09:56:20;;;;;;;24.50;14.10;;;16.70;50.60;18.10;97963.00;;;;5049080;28;20224;-87
2022/03/27 09:59:31;;;;;;;17.60;12.37;;;17.00;49.70;18.20;97956.00;;;;5045379;28;20232;-88
2022/03/27 10:02:23;;;;;;;22.53;13.50;;;17.20;49.10;18.50;97957.00;;;;5046645;28;20193;-86
2022/03/27 10:05:14;;;;;;;19.67;12.60;;;17.40;48.90;18.50;97964.00;;;;5047883;28;20574;-88
2022/03/27 10:08:03;;;;;;;20.67;13.03;;;17.60;47.40;18.80;97966.00;;;;5045401;28;20211;-88
2022/03/27 10:10:54;;;;;;;21.20;13.80;;;17.70;48.00;19.40;97964.00;;;;5048459;28;20578;-88
2022/03/27 10:13:43;;;;;;;20.83;14.00;;;17.90;47.90;18.60;97957.00;;;;5043294;28;20304;-88
2022/03/27 10:16:35;;;;;;;20.90;12.10;;;18.00;47.10;19.40;97953.00;;;;5049902;28;20212;-87
2022/03/27 10:19:32;;;;;;;24.00;12.80;;;18.10;46.70;19.10;97958.00;;;;5044130;28;20235;-88
2022/03/27 10:22:22;;;;;;;21.53;14.40;;;18.20;46.50;19.30;97953.00;;;;5045405;28;20212;-88
2022/03/27 10:25:14;;;;;;;19.80;14.03;;;18.30;47.00;19.50;97962.00;;;;5045151;28;20196;-88
2022/03/27 10:28:06;;;;;;;19.33;14.17;;;18.50;47.30;19.70;97956.00;;;;5048855;28;20204;-87
2022/03/27 10:30:55;;;;;;;24.13;14.50;;;18.70;45.80;20.30;97953.00;;;;5049049;28;20552;-88
2022/03/27 10:33:45;;;;;;;17.93;13.47;;;18.80;46.20;19.50;97946.00;;;;5046082;28;20228;-88
2022/03/27 10:36:52;;;;;;;23.17;15.03;;;19.00;45.30;20.30;97950.00;;;;5048085;28;20558;-89
2022/03/27 10:39:54;;;;;;;22.83;14.27;;;19.10;45.90;20.10;97940.00;;;;5048299;28;20224;-88
2022/03/27 10:42:55;;;;;;;20.37;14.47;;;19.10;45.60;21.20;97941.00;;;;5049166;28;20205;-88
2022/03/27 10:45:45;;;;;;;20.90;14.87;;;19.30;46.30;21.30;97924.00;;;;5039423;28;20204;-89
2022/03/27 10:48:38;;;;;;;22.27;15.20;;;19.60;46.10;21.20;97930.00;;;;5047421;28;20197;-89
2022/03/27 10:51:39;;;;;;;20.03;14.33;;;19.90;45.90;21.00;97921.00;;;;5049329;28;20204;-88
2022/03/27 10:54:28;;;;;;;24.67;15.07;;;20.00;44.50;20.30;97914.00;;;;5046037;28;20583;-89
2022/03/27 10:57:31;;;;;;;23.50;15.33;;;20.00;43.40;21.00;97907.00;;;;5043104;28;20209;-89
2022/03/27 11:00:40;;;;;;;20.97;14.63;;;20.10;43.80;21.60;97904.00;;;;5047629;28;20231;-89
2022/03/27 11:04:04;;;;;;;24.10;15.73;;;20.30;43.70;22.80;97905.00;;;;5050016;28;20224;-89
2022/03/27 11:07:20;;;;;;;21.80;14.27;;;20.60;44.70;22.90;97906.00;;;;5043472;28;20256;-90
2022/03/27 11:10:40;;;;;;;18.67;14.57;;;20.90;43.60;22.30;97894.00;;;;5046971;28;20215;-89
2022/03/27 11:13:40;;;;;;;23.00;15.57;;;21.30;42.90;23.30;97893.00;;;;5048601;28;20228;-89
2022/03/27 11:16:29;;;;;;;21.60;15.80;;;21.60;42.40;21.50;97891.00;;;;5047352;28;20201;-89
2022/03/27 11:19:47;;;;;;;24.37;14.67;;;21.70;41.60;22.30;97890.00;;;;5040860;28;20295;-89
2022/03/27 11:22:49;;;;;;;18.23;13.57;;;21.60;41.50;23.00;97896.00;;;;5041927;28;20386;-89
2022/03/27 11:25:46;;;;;;;22.03;15.23;;;21.70;42.30;21.20;97884.00;;;;5046679;28;20201;-89
2022/03/27 11:28:52;;;;;;;22.27;13.97;;;21.70;40.30;20.20;97877.00;;;;5044509;28;20201;-88
2022/03/27 11:31:42;;;;;;;22.90;15.57;;;21.50;40.30;19.50;97861.00;;;;5040298;28;20192;-90
2022/03/27 11:34:31;;;;;;;23.10;14.83;;;20.70;40.50;20.80;97876.00;;;;5048596;28;20233;-88
2022/03/27 11:37:25;;;;;;;26.60;15.23;;;20.40;42.20;21.80;97874.00;;;;5040210;28;20196;-89
2022/03/27 11:40:38;;;;;;;25.33;15.43;;;20.60;42.00;23.50;97872.00;;;;5037866;28;20232;-87
2022/03/27 11:43:33;;;;;;;20.10;14.73;;;21.10;42.10;23.20;97874.00;;;;5044190;28;20232;-87
2022/03/27 11:46:25;;;;;;;22.60;15.83;;;21.50;40.40;23.30;97882.00;;;;5041679;28;20200;-87
2022/03/27 11:49:14;;;;;;;23.27;15.00;;;21.80;40.90;21.90;97847.00;;;;5046438;28;20204;-86
2022/03/27 11:52:08;;;;;;;22.63;14.53;;;21.70;40.00;23.20;97854.00;;;;5048510;28;20205;-86
2022/03/27 11:55:06;;;;;;;27.13;17.30;;;21.70;40.00;24.80;97857.00;;;;5046742;28;20698;-86
2022/03/27 11:57:58;;;;;;;22.43;14.20;;;22.10;41.10;25.20;97859.00;;;;5046956;28;20236;-87
2022/03/27 12:00:48;;;;;;;22.13;14.10;;;22.60;40.60;25.90;97857.00;;;;5045215;28;20239;-86
2022/03/27 12:03:37;;;;;;;;;;;23.20;40.80;24.60;97853.00;;;;5047878;28;20507;-86
2022/03/27 12:06:28;;;;;;;;;;;23.60;39.50;24.40;97848.00;;;;5047100;28;19920;-85
2022/03/27 12:09:27;;;;;;;;;;;23.80;39.60;22.30;97847.00;;;;5052657;28;19970;-85
2022/03/27 12:12:17;;;;;;;;;;;23.30;38.50;21.10;97830.00;;;;5052730;28;19932;-85
2022/03/27 12:15:08;;;;;;;;;;;22.70;38.90;21.90;97827.00;;;;5052859;28;19924;-85
2022/03/27 12:17:58;;;;;;;;;;;22.20;39.20;22.60;97820.00;;;;5049369;28;19924;-86
2022/03/27 12:20:48;;;;;;;;;;;22.00;40.00;22.50;97833.00;;;;5047281;28;19925;-84
2022/03/27 12:23:38;;;;;;;;;;;22.20;40.30;24.60;97835.00;;;;5046905;28;19932;-85
2022/03/27 12:29:49;;;;;;;23.57;14.77;;;23.20;40.80;26.40;97826.00;;;;5046678;28;20204;-89
2022/03/27 12:32:38;;;;;;;19.93;13.77;;;23.90;39.60;26.30;97835.00;;;;5041394;28;20259;-86
2022/03/27 12:35:27;;;;;;;17.33;13.73;;;24.40;39.60;23.80;97820.00;;;;5045632;28;20200;-86
2022/03/27 12:38:30;;;;;;;22.03;15.37;;;24.80;38.10;22.60;97806.00;;;;5039941;28;20880;-85
2022/03/27 12:41:37;;;;;;;19.20;13.57;;;23.90;37.40;24.70;97818.00;;;;5043149;28;20215;-89
2022/03/27 12:44:26;;;;;;;24.90;15.20;;;23.60;40.00;24.00;97813.00;;;;5043473;28;20223;-90
2022/03/27 12:47:16;;;;;;;19.77;14.27;;;23.80;39.10;25.20;97817.00;;;;5043182;28;20596;-89
2022/03/27 12:50:07;;;;;;;17.83;13.50;;;24.00;39.10;24.90;97808.00;;;;5041792;28;20210;-89
2022/03/27 12:53:00;;;;;;;19.50;13.93;;;24.30;39.30;24.90;97811.00;;;;5044764;28;20246;-89
2022/03/27 12:55:50;;;;;;;20.90;15.57;;;24.60;38.80;25.80;97806.00;;;;5040764;28;20212;-90
2022/03/27 12:58:41;;;;;;;20.63;15.87;;;24.80;38.10;25.20;97813.00;;;;5042113;28;20218;-89
2022/03/27 13:01:32;;;;;;;18.03;13.90;;;25.10;36.80;27.10;97807.00;;;;5046370;28;20590;-90
2022/03/27 13:04:24;;;;;;;19.40;14.77;;;25.30;37.70;28.40;97810.00;;;;5045325;28;20214;-90
2022/03/27 13:07:13;;;;;;;21.53;15.90;;;25.80;37.60;27.30;97802.00;;;;5044022;28;20845;-90
2022/03/27 13:10:11;;;;;;;18.25;15.05;;;26.10;37.30;26.10;97803.00;;;;5040620;28;20216;-90
2022/03/27 13:13:02;;;;;;;22.67;14.73;;;26.20;36.50;27.30;97802.00;;;;5042249;28;20235;-91
2022/03/27 13:15:54;;;;;;;18.13;13.43;;;26.20;36.00;24.50;97781.00;;;;5047176;28;20225;-90
2022/03/27 13:18:43;;;;;;;20.02;14.73;;;25.90;35.90;24.80;97783.00;;;;5045458;28;20246;-90
2022/03/27 13:21:37;;;;;;;22.30;15.53;;;25.20;36.20;23.30;97787.00;;;;5043003;28;20197;-89
2022/03/27 13:24:28;;;;;;;17.93;14.47;;;24.50;37.10;26.00;97783.00;;;;5045869;28;20719;-91
2022/03/27 13:27:17;;;;;;;18.00;13.77;;;24.40;38.00;24.30;97771.00;;;;5044993;28;20208;-92
2022/03/27 13:30:08;;;;;;;18.83;13.33;;;24.40;37.30;23.50;97773.00;;;;5041635;28;20212;-89
2022/03/27 13:32:58;;;;;;;18.43;14.07;;;24.10;37.60;23.90;97775.00;;;;5052340;28;20619;-89
2022/03/27 13:35:49;;;;;;;17.87;13.47;;;24.10;37.40;24.20;97766.00;;;;5051099;28;20202;-90
2022/03/27 13:38:39;;;;;;;19.20;14.53;;;24.10;37.80;24.90;97765.00;;;;5046524;28;20212;-88
2022/03/27 13:44:38;;;;;;;21.00;14.03;;;24.10;37.30;26.10;97767.00;;;;5047933;28;20222;-90
2022/03/27 13:47:28;;;;;;;22.03;12.73;;;24.40;38.20;26.80;97770.00;;;;5047845;28;20204;-88
2022/03/27 13:50:17;;;;;;;23.33;14.83;;;25.00;37.80;28.30;97766.00;;;;5048204;28;20221;-88